Latest Weather Observations for Julia Creek

IDQ60801

Issued at 10:02 am EST Thursday 29 January 2015 (issued every 30 minutes, with the page automatically refreshed every 10 minutes)

About weather observations | Map of weather stations | Latest weather observations for QLD | Other Formats
Station Details ID: 029058 Name: JULIA CREEK AIRPORT Lat: -20.67 Lon: 141.72 Height: 122.5 m
Data from the previous 72 hours. | See also: Recent months at Julia Creek
Date/Time
EST
Temp
°C
App
Temp
°C
Dew
Point
Rel
Hum
%
Delta-T
°C
Wind Press
QNH
hPa
Press
MSL
hPa
Rain
since 9 am
mm
Dir
 
Spd
km/h
Gust
km/h
Spd
kts
Gust
kts
29/10:00am 33.5 31.0 14.0 30 12.0 SE 20 28 11 15 1005.2 1004.3 0.0
29/09:30am 31.8 28.5 11.0 28 12.1 SE 19 28 10 15 1005.3 1004.4 0.0
29/09:00am 30.1 25.8 7.9 25 12.2 SSE 20 30 11 16 1005.1 1004.2 0.0
29/08:30am 28.3 23.3 4.6 22 12.2 S 20 28 11 15 1004.8 1003.9 0.0
29/08:00am 26.6 21.1 3.8 23 11.5 S 22 30 12 16 1004.5 1003.6 0.0
29/07:30am 23.3 18.3 3.8 28 9.6 SSW 19 24 10 13 1004.5 1003.6 0.0
29/07:00am 21.0 16.3 3.2 31 8.5 SSW 17 20 9 11 1004.3 1003.4 0.0
29/06:30am 19.5 15.1 2.8 33 7.8 SSW 15 17 8 9 1003.9 1003.0 0.0
29/06:00am 19.7 15.3 2.6 32 8.0 SSW 15 17 8 9 1003.6 1002.7 0.0
29/05:30am 20.0 16.0 2.8 32 8.1 SSW 13 17 7 9 1003.3 1002.4 0.0
29/05:00am 19.6 15.5 2.5 32 8.0 SW 13 15 7 8 1003.3 1002.4 0.0
29/04:30am 20.0 16.0 2.8 32 8.1 SW 13 15 7 8 1003.3 1002.4 0.0
29/04:00am 19.9 15.9 2.7 32 8.1 SW 13 15 7 8 1003.0 1002.1 0.0
29/03:30am 20.5 16.4 2.3 30 8.5 SW 13 15 7 8 1002.8 1001.9 0.0
29/03:00am 20.8 16.7 2.1 29 8.8 SW 13 17 7 9 1002.9 1002.0 0.0
29/02:30am 20.3 16.2 2.2 30 8.4 SW 13 15 7 8 1002.9 1002.0 0.0
29/02:00am 20.3 16.7 3.1 32 8.2 SSW 11 15 6 8 1003.1 1002.2 0.0
29/01:30am 19.8 15.8 3.1 33 7.9 SW 13 13 7 7 1003.4 1002.5 0.0
29/01:00am 19.8 15.7 2.2 31 8.2 SW 13 15 7 8 1003.6 1002.7 0.0
29/12:30am 19.7 15.5 1.7 30 8.3 SW 13 13 7 7 1004.0 1003.1 0.0
 
Date/Time
EST
Temp
°C
App
Temp
°C
Dew
Point
Rel
Hum
%
Delta-T
°C
Wind Press
QNH
hPa
Press
MSL
hPa
Rain
since 9 am
mm
Dir
 
Spd
km/h
Gust
km/h
Spd
kts
Gust
kts
28/11:30pm 20.9 17.0 1.2 27 9.0 SW 11 13 6 7 1004.4 1003.5 0.0
28/11:00pm 21.9 17.7 1.6 26 9.5 SSW 13 13 7 7 1004.2 1003.3 0.0
28/10:30pm 24.3 20.4 1.2 22 10.9 SSW 11 15 6 8 1004.2 1003.3 0.0
28/10:00pm 24.2 20.0 1.8 23 10.7 SW 13 15 7 8 1004.0 1003.1 0.0
28/09:30pm 24.7 20.4 0.9 21 11.2 SW 13 15 7 8 1003.7 1002.8 0.0
28/09:00pm 25.1 20.6 -0.1 19 11.7 SW 13 17 7 9 1003.5 1002.6 0.0
28/08:30pm 26.8 23.4 -0.3 17 12.6 S 7 9 4 5 1003.3 1002.4 0.0
28/08:00pm 28.1 23.5 -0.9 15 13.6 S 13 13 7 7 1003.0 1002.1 0.0
28/07:30pm 31.1 26.8 -1.6 12 15.5 S 11 13 6 7 1002.7 1001.8 0.0
28/07:00pm 34.3 29.2 -1.7 10 17.4 S 15 20 8 11 1002.3 1001.4 0.0
28/06:30pm 35.5 30.0 -2.2 9 18.2 SSW 17 24 9 13 1002.0 1001.1 0.0
28/06:00pm 36.5 31.1 -1.4 9 18.7 SSW 17 30 9 16 1001.6 1000.7 0.0
28/05:30pm 36.6 30.8 -1.4 9 18.6 SW 19 28 10 15 1001.5 1000.6 0.0
28/05:00pm 36.6 30.6 -1.4 9 18.7 S 20 28 11 15 1001.2 1000.3 0.0
28/04:30pm 37.0 33.2 -1.1 9 18.8 SSW 9 19 5 10 1001.3 1000.4 0.0
28/04:00pm 36.1 31.0 -1.7 9 18.5 SSW 15 26 8 14 1001.3 1000.4 0.0
28/03:30pm 37.0 31.3 -1.1 9 18.8 SSW 19 32 10 17 1001.5 1000.6 0.0
28/03:00pm 37.2 31.5 -0.9 9 19.0 SSW 19 33 10 18 1001.8 1000.9 0.0
28/02:30pm 36.6 29.9 -1.4 9 18.6 SSW 24 37 13 20 1002.1 1001.2 0.0
28/02:00pm 36.5 31.3 0.0 10 18.4 SW 17 33 9 18 1002.4 1001.5 0.0
28/01:30pm 36.8 31.0 0.2 10 18.4 SSW 20 33 11 18 1002.8 1001.9 0.0
28/01:00pm 35.9 31.8 -0.5 10 18.1 S 11 32 6 17 1003.1 1002.2 0.0
28/12:30pm 35.3 30.3 -0.9 10 17.7 S 15 28 8 15 1003.6 1002.7 0.0
28/12:00pm 35.3 29.6 0.4 11 17.5 S 20 32 11 17 1004.1 1003.2 0.0
28/11:30am 34.1 28.6 0.7 12 16.7 S 19 28 10 15 1004.4 1003.5 0.0
28/11:00am 33.8 28.1 2.6 14 16.1 S 22 30 12 16 1004.7 1003.8 0.0
28/10:30am 33.1 28.0 3.9 16 15.3 S 20 32 11 17 1004.9 1004.0 0.0
28/10:00am 31.1 25.2 4.0 18 14.1 S 24 32 13 17 1004.9 1004.0 0.0
28/09:30am 29.9 23.6 3.8 19 13.4 S 26 35 14 19 1005.0 1004.1 0.0
28/09:00am 28.4 21.1 2.6 19 12.9 S 30 39 16 21 1005.1 1004.2 0.0
28/08:30am 27.1 20.6 2.9 21 12.0 SSW 26 35 14 19 1005.4 1004.5 0.0
28/08:00am 25.6 19.1 2.9 23 11.2 SSW 26 33 14 18 1005.3 1004.4 0.0
28/07:30am 23.9 18.8 3.2 26 10.1 SSW 19 24 10 13 1005.1 1004.2 0.0
28/07:00am 21.9 17.6 3.1 29 9.0 SSW 15 19 8 10 1004.8 1003.9 0.0
28/06:30am 19.5 15.5 2.8 33 7.8 SSW 13 17 7 9 1004.4 1003.5 0.0
28/06:00am 18.5 14.8 2.4 34 7.4 SW 11 13 6 7 1004.1 1003.2 0.0
28/05:30am 18.7 14.6 2.5 34 7.5 SW 13 17 7 9 1003.9 1003.0 0.0
28/05:00am 18.0 14.3 2.3 35 7.2 SW 11 13 6 7 1003.8 1002.9 0.0
28/04:30am 18.2 14.5 2.1 34 7.4 SW 11 13 6 7 1003.5 1002.6 0.0
28/04:00am 18.2 14.1 2.5 35 7.3 SW 13 13 7 7 1003.3 1002.4 0.0
28/03:30am 19.3 15.6 2.6 33 7.8 SW 11 13 6 7 1003.4 1002.5 0.0
28/03:00am 19.9 15.9 2.7 32 8.1 SW 13 17 7 9 1003.3 1002.4 0.0
28/02:30am 20.8 16.8 2.6 30 8.6 SSW 13 15 7 8 1003.5 1002.6 0.0
28/02:00am 21.5 16.7 2.7 29 9.0 SSW 17 20 9 11 1003.8 1002.9 0.0
28/01:30am 21.9 17.2 3.1 29 9.0 SSW 17 19 9 10 1004.0 1003.1 0.0
28/01:00am 22.1 18.4 2.2 27 9.4 SSW 11 13 6 7 1004.4 1003.5 0.0
28/12:30am 24.2 19.3 1.8 23 10.7 SSW 17 20 9 11 1004.3 1003.4 0.0
28/12:00am 24.4 20.0 2.5 24 10.6 SSW 15 17 8 9 1004.5 1003.6 0.0
 
Date/Time
EST
Temp
°C
App
Temp
°C
Dew
Point
Rel
Hum
%
Delta-T
°C
Wind Press
QNH
hPa
Press
MSL
hPa
Rain
since 9 am
mm
Dir
 
Spd
km/h
Gust
km/h
Spd
kts
Gust
kts
27/11:30pm 24.4 20.3 2.5 24 10.6 SSW 13 17 7 9 1004.8 1003.9 0.0
27/11:00pm 25.3 21.3 2.7 23 11.1 SSW 13 17 7 9 1004.8 1003.9 0.0
27/10:30pm 26.3 22.2 2.3 21 11.7 SSW 13 15 7 8 1004.5 1003.6 0.0
27/10:00pm 27.3 22.8 2.4 20 12.3 SSW 15 17 8 9 1004.3 1003.4 0.0
27/09:30pm 28.8 23.9 2.1 18 13.2 SSW 17 20 9 11 1004.4 1003.5 0.0
27/09:00pm 28.9 24.9 3.0 19 13.1 SSW 13 19 7 10 1004.2 1003.3 0.0
27/08:30pm 31.0 26.1 2.3 16 14.4 SSW 17 20 9 11 1003.7 1002.8 0.0
27/08:00pm 32.2 27.9 3.2 16 15.0 SSW 15 20 8 11 1003.3 1002.4 0.0
27/07:30pm 33.4 28.0 2.3 14 15.9 SW 20 28 11 15 1003.0 1002.1 0.0
27/07:00pm 35.4 31.0 2.8 13 17.0 SSW 15 20 8 11 1002.5 1001.6 0.0
27/06:30pm 36.7 31.1 1.5 11 18.1 SSW 20 28 11 15 1002.2 1001.3 0.0
27/06:00pm 37.1 31.8 1.8 11 18.3 SSW 19 24 10 13 1001.9 1001.0 0.0
27/05:30pm 37.8 31.6 2.3 11 18.6 SSW 24 33 13 18 1001.9 1001.0 0.0
27/05:00pm 37.9 31.7 2.4 11 18.7 SSW 24 35 13 19 1001.9 1001.0 0.0
27/04:30pm 38.4 32.1 1.4 10 19.2 SSW 24 35 13 19 1002.0 1001.1 0.0
27/04:00pm 38.4 32.3 2.8 11 18.9 SW 24 37 13 20 1002.2 1001.3 0.0
27/03:30pm 39.2 34.9 3.4 11 19.2 SSW 15 32 8 17 1002.6 1001.7 0.0
27/03:00pm 38.5 33.2 2.8 11 19.0 SW 20 28 11 15 1002.9 1002.0 0.0
27/02:30pm 38.0 32.6 2.5 11 18.7 SSW 20 33 11 18 1003.1 1002.2 0.0
27/02:00pm 37.8 32.2 3.5 12 18.4 SW 22 33 12 18 1003.5 1002.6 0.0
27/01:30pm 38.2 32.8 2.6 11 18.8 SSW 20 33 11 18 1003.9 1003.0 0.0
27/01:00pm 37.4 32.7 3.2 12 18.2 S 17 28 9 15 1004.4 1003.5 0.0
27/12:30pm 37.0 32.5 4.0 13 17.7 SSW 17 26 9 14 1005.0 1004.1 0.0
27/12:00pm 37.0 33.0 5.1 14 17.4 S 15 28 8 15 1005.2 1004.3 0.0
27/11:30am 35.3 32.6 5.7 16 16.1 SSE 9 20 5 11 1005.6 1004.6 0.0
27/11:00am 33.8 30.8 6.2 18 15.1 SE 11 17 6 9 1005.9 1004.9 0.0
27/10:30am 33.1 30.0 7.1 20 14.3 SSE 13 20 7 11 1006.6 1005.6 0.0
27/10:00am 31.5 28.1 5.8 20 13.8 SSE 13 22 7 12 1006.8 1005.8 0.0
27/09:30am 30.6 26.0 5.8 21 13.2 SSE 19 22 10 12 1007.1 1006.1 0.0
27/09:00am 29.4 25.5 5.5 22 12.6 S 15 22 8 12 1007.0 1006.0 0.0
27/08:30am 28.0 25.5 5.0 23 11.9 SSW 7 13 4 7 1007.0 1006.0 0.0
27/08:00am 26.6 24.1 3.8 23 11.5 WSW 6 7 3 4 1006.7 1005.7 0.0
27/07:30am 24.6 23.4 6.4 31 9.4 WNW 2 4 1 2 1006.5 1005.5 0.0
27/07:00am 21.6 20.1 6.7 38 7.7 NNW 4 7 2 4 1006.5 1005.5 0.0
27/06:30am 19.5 16.2 4.8 38 7.2 WNW 11 13 6 7 1006.1 1005.1 0.0
27/06:00am 20.7 17.7 4.3 34 8.0 NW 9 11 5 6 1006.0 1005.0 0.0
27/05:30am 21.1 17.7 3.8 32 8.4 N 11 15 6 8 1005.6 1004.6 0.0
27/05:00am 20.6 17.2 3.8 33 8.1 N 11 15 6 8 1005.1 1004.2 0.0
27/04:30am 21.3 18.8 3.5 31 8.6 NW 6 7 3 4 1004.8 1003.9 0.0
27/04:00am 23.3 19.8 3.3 27 9.8 SW 11 13 6 7 1004.5 1003.6 0.0
27/03:30am 24.3 20.0 3.0 25 10.4 SSW 15 19 8 10 1004.3 1003.4 0.0
27/03:00am 25.0 20.3 3.0 24 10.8 SSW 17 20 9 11 1004.3 1003.4 0.0
27/02:30am 25.8 20.6 2.5 22 11.4 SSW 19 24 10 13 1004.4 1003.5 0.0
27/02:00am 26.5 21.4 3.1 22 11.6 SSW 19 24 10 13 1004.4 1003.5 0.0
27/01:30am 27.2 21.9 3.0 21 12.0 SSW 20 26 11 14 1004.6 1003.7 0.0
27/01:00am 28.2 22.2 3.1 20 12.6 SSW 24 30 13 16 1005.0 1004.1 0.0
27/12:30am 29.2 23.4 2.5 18 13.3 SSW 22 30 12 16 1005.0 1004.1 0.0
27/12:00am 29.4 24.2 2.6 18 13.4 SSW 19 24 10 13 1005.4 1004.5 0.0
 
Date/Time
EST
Temp
°C
App
Temp
°C
Dew
Point
Rel
Hum
%
Delta-T
°C
Wind Press
QNH
hPa
Press
MSL
hPa
Rain
since 9 am
mm
Dir
 
Spd
km/h
Gust
km/h
Spd
kts
Gust
kts
26/11:30pm 30.1 24.5 3.2 18 13.7 SSW 22 28 12 15 1005.7 1004.7 0.0
26/11:00pm 29.5 24.7 4.9 21 12.8 SSW 19 20 10 11 1005.8 1004.8 0.0
26/10:30pm 29.3 25.4 7.2 25 11.9 SSW 17 20 9 11 1005.7 1004.7 0.0
26/10:00pm 29.3 26.5 8.4 27 11.6 SSW 13 15 7 8 1005.7 1004.7 0.0
26/09:30pm 30.6 27.7 8.3 25 12.4 SSW 13 15 7 8 1005.7 1004.7 0.0
26/09:00pm 32.2 29.4 8.4 23 13.4 SSW 13 17 7 9 1005.4 1004.5 0.0
26/08:30pm 32.9 29.8 9.0 23 13.5 SW 15 19 8 10 1005.1 1004.2 0.0
26/08:00pm 32.9 30.8 9.7 24 13.3 SW 11 17 6 9 1004.6 1003.7 0.0
26/07:30pm 34.1 31.7 10.0 23 13.9 WSW 13 13 7 7 1004.2 1003.3 0.0
26/07:00pm 36.5 33.9 9.2 19 15.8 WSW 13 17 7 9 1003.6 1002.7 0.0
26/06:30pm 37.9 34.7 8.6 17 16.9 SW 15 20 8 11 1003.3 1002.4 0.0
26/06:00pm 38.4 34.2 8.1 16 17.4 SSW 20 28 11 15 1003.3 1002.4 0.0
26/05:30pm 39.1 36.0 8.7 16 17.6 SW 15 28 8 15 1003.1 1002.2 0.0
26/05:00pm 39.0 35.8 8.6 16 17.7 SSW 15 32 8 17 1003.2 1002.3 0.0
26/04:30pm 38.0 33.5 6.9 15 17.5 SSW 20 28 11 15 1003.4 1002.5 0.0
26/04:00pm 38.9 32.6 5.5 13 18.5 SSW 28 37 15 20 1003.6 1002.7 0.0
26/03:30pm 39.8 35.2 3.8 11 19.5 S 17 26 9 14 1003.9 1003.0 0.0
26/03:00pm 39.2 34.4 4.6 12 19.0 SSW 19 30 10 16 1004.2 1003.3 0.0
26/02:30pm 39.1 36.2 4.5 12 18.9 SSE 9 20 5 11 1004.6 1003.7 0.0
26/02:00pm 38.4 36.3 8.1 16 17.4 SSW 9 22 5 12 1005.1 1004.2 0.0
26/01:30pm 38.6 36.7 9.2 17 17.1 SSW 9 28 5 15 1005.8 1004.8 0.0
26/01:00pm 38.1 37.2 12.7 22 15.6 SW 9 17 5 9 1006.2 1005.2 0.0
26/12:30pm 37.1 36.4 13.2 24 14.7 SSW 9 20 5 11 1006.8 1005.8 0.0
26/12:00pm 36.5 36.0 13.9 26 14.0 WSW 9 19 5 10 1007.2 1006.2 0.0
26/11:30am 35.1 35.5 15.4 30 12.4 WSW 7 17 4 9 1007.6 1006.6 0.0
26/11:00am 34.5 34.0 15.9 33 11.8 W 13 20 7 11 1008.1 1007.2 0.0
26/10:30am 33.9 34.1 17.6 38 10.5 WNW 13 24 7 13 1008.2 1007.3 0.0

Other Formats:

Comma delimited format used in spreadsheet applications
http://www.bom.gov.au/fwo/IDQ60801/IDQ60801.94337.axf

JavaScript Object Notation format (JSON) in row-major order
http://www.bom.gov.au/fwo/IDQ60801/IDQ60801.94337.json